Terminal Aerodrome Forecast
Issued by NWS

Home | Current Version | Previous Version | Graphics & Text | Print | Product List | Glossary On
Versions: 1 2 3 4 5 6 7 8 9 10 11 12 13 14 15
000
FTUS43 KIWX 171100
TAFSBN
TAF
KSBN 171129Z 1712/1812 30017KT P6SM OVC018
     FM171500 29014G22KT P6SM OVC020
     FM180000 28007KT P6SM SCT025 BKN035=

USA.gov is the U.S. government's official web portal to all federal, state and local government web resources and services.